Northway Airport Northway US
ICAO: PAOR
IATA:
Category: Medium
Scheduled Services:

Elevation: 1715 ft
TransAlt. 18000 ft.

Airport Communications:
ASOS:135.4
ANCHORAGE CNTR:126.55
CTAF:123.6
RDO:122.2
SUAS INFO SVC:125.3

PAOR Zoom In..

Runways:

(A) RW 05 length 5100 ft width 100 ft
---- / hdg 52

(B) RW 23 length 5100 ft width 100 ft
---- / hdg 232

Location; PAOR
Day. 23 / Time. 21.53 Zulu
* Altimeter: 29.74
* Temperature: 09° c. 48.2°f.
* Wind from: VRB° Speed 05 kn.
Dewpoint: 04° c.
Visibility: 10 Statute Miles.
Clouds: Scattered 3400 ft.
Clouds: Broken 4700 ft.
Clouds: Broken 5500 ft.

PAOR 232153Z VRB05KT 10SM SCT034 BKN047 BKN055 09/04 A2974 RMK AO2 SLP086 T00940039


Wind From VRB°
Speed 05 kn.

 
 
jpsmedia.com for Web Design SOUNDCLOUD worldairports.se 2018   terms of use